Flight Track Log - Related Links

Times and Time Zones

All times are in EDT time to prevent confusion due to time zone crossing. See the ASQ5309 flight status page for this flight to view local times or setup timezone preferences in your user account.

Time Position Orientation Groundspeed Altitude Reporting Facility
EDT Latitude Longitude Course Direction KTS MPH feet Rate Location/Type
Thu 06:32:56 AM 43.6667 -79.6500 227° Southwest 170 196 2,000  Level Toronto Center
Thu 06:33:56 AM 43.6333 -79.7000 235° Southwest 210 242 4,000 2,400 Climbing Toronto Center
Thu 06:34:56 AM 43.5833 -79.8000 224° Southwest 260 299 6,800 2,000 Climbing Toronto Center
Thu 06:35:56 AM 43.5333 -79.8667 224° Southwest 270 311 8,000 1,900 Climbing Toronto Center
Thu 06:36:56 AM 43.4833 -79.9333 210° Southwest 270 311 10,600 2,250 Climbing Toronto Center
Thu 06:37:56 AM 43.4000 -80.0000 222° Southwest 320 368 12,500 2,050 Climbing Toronto Center
Thu 06:38:56 AM 43.3333 -80.0833 226° Southwest 350 403 14,700 2,250 Climbing Toronto Center
Thu 06:39:56 AM 43.2500 -80.2000 228° Southwest 380 437 17,000 2,150 Climbing Toronto Center
Thu 06:40:56 AM 43.1833 -80.3000 236° Southwest 390 449 19,000 2,150 Climbing Toronto Center
Thu 06:41:56 AM 43.1167 -80.4333 251° West 400 460 21,300 1,500 Climbing Toronto Center
Thu 06:42:56 AM 43.0833 -80.5667 250° West 420 483 22,000 350 Climbing Toronto Center
Thu 06:43:56 AM 43.0333 -80.7500 243° Southwest 440 506 22,000  Level Toronto Center
Thu 06:44:56 AM 42.9833 -80.8833 250° West 450 518 22,000  Level Toronto Center
Thu 06:45:56 AM 42.9333 -81.0667 248° West 450 518 22,000  Level Toronto Center
Thu 06:46:56 AM 42.8833 -81.2333 251° West 450 518 22,000  Level Toronto Center
Thu 06:47:56 AM 42.8500 -81.3667 248° West 450 518 22,000  Level Toronto Center
Thu 06:48:56 AM 42.8000 -81.5333 248° West 450 518 22,000  Level Toronto Center
Thu 06:49:56 AM 42.7500 -81.7000 253° West 450 518 22,000  Level Toronto Center
Thu 06:50:56 AM 42.7167 -81.8500 242° Southwest 450 518 22,000 -600 Level Toronto Center
Thu 06:51:56 AM 42.6500 -82.0167 253° West 450 518 20,800 -1,900 Descending Toronto Center
Thu 06:52:56 AM 42.6167 -82.1667 254° West 440 506 18,200 -2,520 Descending Toronto Center
Thu 06:53:36 AM 42.5953 -82.2658 248° West 428 493 16,600 -2,582 Descending FAA TRACON SMA TRACON (SMA)
Thu 06:54:15 AM 42.5653 -82.3664 247° West 417 480 14,800 -2,550 Descending FAA TRACON SMA TRACON (SMA)
Thu 06:54:56 AM 42.5364 -82.4592 247° West 403 464 13,200 -2,000 Descending FAA TRACON SMA TRACON (SMA)
Thu 06:55:36 AM 42.5100 -82.5444 244° Southwest 388 447 12,100 -1,139 Descending FAA TRACON SMA TRACON (SMA)
Thu 06:56:15 AM 42.4789 -82.6322 240° Southwest 374 430 11,700 -835 Descending FAA TRACON SMA TRACON (SMA)
Thu 06:56:55 AM 42.4458 -82.7089 234° Southwest 345 397 11,000 -963 Descending FAA TRACON SMA TRACON (SMA)
Thu 06:57:36 AM 42.4128 -82.7703 235° Southwest 314 361 10,400 -889 Descending FAA TRACON SMA TRACON (SMA)
Thu 06:58:16 AM 42.3819 -82.8306 263° West 280 322 9,800 -987 Descending FAA TRACON SMA TRACON (SMA)
Thu 06:58:55 AM 42.3764 -82.8911 287° West 260 299 9,100 -975 Descending FAA TRACON SMA TRACON (SMA)
Thu 06:59:36 AM 42.3894 -82.9492 288° West 250 288 8,500 -1,037 Descending FAA TRACON SMA TRACON (SMA)
Thu 07:00:16 AM 42.4036 -83.0075 277° West 238 274 7,700 -1,350 Descending FAA TRACON SMA TRACON (SMA)
Thu 07:00:56 AM 42.4089 -83.0650 267° West 234 269 6,700 -1,440 Descending FAA TRACON SMA TRACON (SMA)
Thu 07:01:56 AM 42.4053 -83.1522 255° West 224 258 5,300 -1,212 Descending FAA TRACON SMA TRACON (SMA)
Thu 07:02:35 AM 42.3958 -83.2000 214° Southwest 185 213 4,700 -900 Descending FAA TRACON SMA TRACON (SMA)
Thu 07:03:16 AM 42.3692 -83.2247 206° Southwest 177 204 4,100 -741 Descending FAA TRACON SMA TRACON (SMA)
Thu 07:03:56 AM 42.3400 -83.2442 210° Southwest 175 201 3,700 -963 Descending FAA TRACON SMA TRACON (SMA)
Thu 07:04:37 AM 42.3117 -83.2661 209° Southwest 174 200 2,800 -1,111 Descending FAA TRACON SMA TRACON (SMA)
Thu 07:05:17 AM 42.2858 -83.2853 209° Southwest 150 173 2,200 -867 Descending FAA TRACON SMA TRACON (SMA)
Thu 07:06:00 AM 42.2617 -83.3031 209° Southwest 123 142 1,600 -684 Descending FAA TRACON SMA TRACON (SMA)
Thu 07:06:36 AM 42.2442 -83.3161 208° Southwest 123 142 1,300 -632 Descending FAA TRACON SMA TRACON (SMA)
Thu 07:07:16 AM 42.2236 -83.3311 208° Southwest 129 148 800 -370 Descending FAA TRACON SMA TRACON (SMA)
Thu 07:07:57 AM 42.2206 -83.3333 208° Southwest 131 151 800  Level FAA TRACON SMA TRACON (SMA)

Login

Don't have an account? Register now (free) for customized features, flight alerts, and more!